sensor_id;sensor_type;location;lat;lon;timestamp;temperature;humidity
18888;DHT22;9576;47.792;9.628;2022-12-26T00:01:12;4.70;99.90
18888;DHT22;9576;47.792;9.628;2022-12-26T00:04:14;4.70;99.90
18888;DHT22;9576;47.792;9.628;2022-12-26T00:07:18;4.70;99.90
18888;DHT22;9576;47.792;9.628;2022-12-26T00:10:20;4.70;99.90
18888;DHT22;9576;47.792;9.628;2022-12-26T00:13:21;4.80;99.90
18888;DHT22;9576;47.792;9.628;2022-12-26T00:16:24;4.70;99.90
18888;DHT22;9576;47.792;9.628;2022-12-26T00:19:26;4.70;99.90
18888;DHT22;9576;47.792;9.628;2022-12-26T00:22:29;4.60;99.90
18888;DHT22;9576;47.792;9.628;2022-12-26T00:25:32;4.50;99.90
18888;DHT22;9576;47.792;9.628;2022-12-26T00:28:35;4.50;99.90
18888;DHT22;9576;47.792;9.628;2022-12-26T00:31:37;4.50;99.90
18888;DHT22;9576;47.792;9.628;2022-12-26T00:34:39;4.50;99.90
18888;DHT22;9576;47.792;9.628;2022-12-26T00:37:43;4.50;99.90
18888;DHT22;9576;47.792;9.628;2022-12-26T00:40:45;4.40;99.90
18888;DHT22;9576;47.792;9.628;2022-12-26T00:43:47;4.50;99.90
18888;DHT22;9576;47.792;9.628;2022-12-26T00:46:49;4.50;99.90
18888;DHT22;9576;47.792;9.628;2022-12-26T00:49:51;4.50;99.90
18888;DHT22;9576;47.792;9.628;2022-12-26T00:52:54;4.50;99.90
18888;DHT22;9576;47.792;9.628;2022-12-26T00:55:57;4.40;99.90
18888;DHT22;9576;47.792;9.628;2022-12-26T00:58:59;4.40;99.90
18888;DHT22;9576;47.792;9.628;2022-12-26T01:02:01;4.50;99.90
18888;DHT22;9576;47.792;9.628;2022-12-26T01:05:23;4.60;99.90
18888;DHT22;9576;47.792;9.628;2022-12-26T01:08:26;4.50;99.90
18888;DHT22;9576;47.792;9.628;2022-12-26T01:11:28;4.50;99.90
18888;DHT22;9576;47.792;9.628;2022-12-26T01:14:41;4.50;99.90
18888;DHT22;9576;47.792;9.628;2022-12-26T01:17:43;4.50;99.90
18888;DHT22;9576;47.792;9.628;2022-12-26T01:20:46;4.50;99.90
18888;DHT22;9576;47.792;9.628;2022-12-26T01:23:49;4.50;99.90
18888;DHT22;9576;47.792;9.628;2022-12-26T01:26:51;4.40;99.90
18888;DHT22;9576;47.792;9.628;2022-12-26T01:29:53;4.40;99.90
18888;DHT22;9576;47.792;9.628;2022-12-26T01:32:55;4.50;99.90
18888;DHT22;9576;47.792;9.628;2022-12-26T01:35:58;4.40;99.90
18888;DHT22;9576;47.792;9.628;2022-12-26T01:39:01;4.40;99.90
18888;DHT22;9576;47.792;9.628;2022-12-26T01:42:10;4.30;99.90
18888;DHT22;9576;47.792;9.628;2022-12-26T01:45:24;4.20;99.90
18888;DHT22;9576;47.792;9.628;2022-12-26T01:48:29;4.20;99.90
18888;DHT22;9576;47.792;9.628;2022-12-26T01:51:37;4.40;99.90
18888;DHT22;9576;47.792;9.628;2022-12-26T01:54:43;4.30;99.90
18888;DHT22;9576;47.792;9.628;2022-12-26T01:57:51;4.20;99.90
18888;DHT22;9576;47.792;9.628;2022-12-26T02:00:54;4.10;99.90
18888;DHT22;9576;47.792;9.628;2022-12-26T02:03:56;4.10;99.90
18888;DHT22;9576;47.792;9.628;2022-12-26T02:07:17;4.20;99.90
18888;DHT22;9576;47.792;9.628;2022-12-26T02:10:23;4.20;99.90
18888;DHT22;9576;47.792;9.628;2022-12-26T02:13:27;4.10;99.90
18888;DHT22;9576;47.792;9.628;2022-12-26T02:16:30;4.00;99.90
18888;DHT22;9576;47.792;9.628;2022-12-26T02:19:40;4.00;99.90
18888;DHT22;9576;47.792;9.628;2022-12-26T02:26:46;3.80;99.90
18888;DHT22;9576;47.792;9.628;2022-12-26T02:30:27;3.80;99.90
18888;DHT22;9576;47.792;9.628;2022-12-26T02:33:44;3.80;99.90
18888;DHT22;9576;47.792;9.628;2022-12-26T02:37:05;3.90;99.90
18888;DHT22;9576;47.792;9.628;2022-12-26T02:43:44;3.80;99.90
18888;DHT22;9576;47.792;9.628;2022-12-26T02:46:56;3.60;99.90
18888;DHT22;9576;47.792;9.628;2022-12-26T02:50:11;3.50;99.90
18888;DHT22;9576;47.792;9.628;2022-12-26T02:53:38;3.60;99.90
18888;DHT22;9576;47.792;9.628;2022-12-26T02:57:03;3.60;99.90
18888;DHT22;9576;47.792;9.628;2022-12-26T03:00:23;3.70;99.90
18888;DHT22;9576;47.792;9.628;2022-12-26T03:03:45;3.80;99.90
18888;DHT22;9576;47.792;9.628;2022-12-26T03:07:11;3.80;99.90
18888;DHT22;9576;47.792;9.628;2022-12-26T03:10:35;3.70;99.90
18888;DHT22;9576;47.792;9.628;2022-12-26T03:14:01;3.70;99.90
18888;DHT22;9576;47.792;9.628;2022-12-26T03:17:06;3.70;99.90
18888;DHT22;9576;47.792;9.628;2022-12-26T03:20:24;3.70;99.90
18888;DHT22;9576;47.792;9.628;2022-12-26T03:23:27;3.70;99.90
18888;DHT22;9576;47.792;9.628;2022-12-26T03:26:33;3.70;99.90
18888;DHT22;9576;47.792;9.628;2022-12-26T03:29:41;3.70;99.90
18888;DHT22;9576;47.792;9.628;2022-12-26T03:33:00;3.80;99.90
18888;DHT22;9576;47.792;9.628;2022-12-26T03:36:05;3.90;99.90
18888;DHT22;9576;47.792;9.628;2022-12-26T03:39:12;3.80;99.90
18888;DHT22;9576;47.792;9.628;2022-12-26T03:42:24;3.80;99.90
18888;DHT22;9576;47.792;9.628;2022-12-26T03:45:50;3.70;99.90
18888;DHT22;9576;47.792;9.628;2022-12-26T03:49:15;3.60;99.90
18888;DHT22;9576;47.792;9.628;2022-12-26T03:52:41;3.60;99.90
18888;DHT22;9576;47.792;9.628;2022-12-26T03:56:07;3.60;99.90
18888;DHT22;9576;47.792;9.628;2022-12-26T03:59:42;3.60;99.90
18888;DHT22;9576;47.792;9.628;2022-12-26T04:03:06;3.50;99.90
18888;DHT22;9576;47.792;9.628;2022-12-26T04:06:32;3.50;99.90
18888;DHT22;9576;47.792;9.628;2022-12-26T04:09:59;3.50;99.90
18888;DHT22;9576;47.792;9.628;2022-12-26T04:13:24;3.60;99.90
18888;DHT22;9576;47.792;9.628;2022-12-26T04:16:50;3.60;99.90
18888;DHT22;9576;47.792;9.628;2022-12-26T04:20:15;3.50;99.90
18888;DHT22;9576;47.792;9.628;2022-12-26T04:23:21;3.50;99.90
18888;DHT22;9576;47.792;9.628;2022-12-26T04:26:49;3.50;99.90
18888;DHT22;9576;47.792;9.628;2022-12-26T04:30:10;3.30;99.90
18888;DHT22;9576;47.792;9.628;2022-12-26T04:33:34;3.40;99.90
18888;DHT22;9576;47.792;9.628;2022-12-26T04:36:57;3.40;99.90
18888;DHT22;9576;47.792;9.628;2022-12-26T04:40:21;3.40;99.90
18888;DHT22;9576;47.792;9.628;2022-12-26T04:43:45;3.60;99.90
18888;DHT22;9576;47.792;9.628;2022-12-26T04:47:08;3.70;99.90
18888;DHT22;9576;47.792;9.628;2022-12-26T04:50:10;3.70;99.90
18888;DHT22;9576;47.792;9.628;2022-12-26T04:53:13;3.70;99.90
18888;DHT22;9576;47.792;9.628;2022-12-26T04:56:15;3.70;99.90
18888;DHT22;9576;47.792;9.628;2022-12-26T04:59:19;3.70;99.90
18888;DHT22;9576;47.792;9.628;2022-12-26T05:02:21;3.70;99.90
18888;DHT22;9576;47.792;9.628;2022-12-26T05:05:45;3.70;99.90
18888;DHT22;9576;47.792;9.628;2022-12-26T05:09:04;3.70;99.90
18888;DHT22;9576;47.792;9.628;2022-12-26T05:12:24;3.80;99.90
18888;DHT22;9576;47.792;9.628;2022-12-26T05:15:27;3.80;99.90
18888;DHT22;9576;47.792;9.628;2022-12-26T05:18:49;3.80;99.90
18888;DHT22;9576;47.792;9.628;2022-12-26T05:22:09;3.80;99.90
18888;DHT22;9576;47.792;9.628;2022-12-26T05:25:33;3.80;99.90
18888;DHT22;9576;47.792;9.628;2022-12-26T05:28:56;3.70;99.90
18888;DHT22;9576;47.792;9.628;2022-12-26T05:32:00;3.50;99.90
18888;DHT22;9576;47.792;9.628;2022-12-26T05:35:02;3.40;99.90
18888;DHT22;9576;47.792;9.628;2022-12-26T05:38:03;3.50;99.90
18888;DHT22;9576;47.792;9.628;2022-12-26T05:41:05;3.50;99.90
18888;DHT22;9576;47.792;9.628;2022-12-26T05:44:08;3.50;99.90
18888;DHT22;9576;47.792;9.628;2022-12-26T05:47:11;3.50;99.90
18888;DHT22;9576;47.792;9.628;2022-12-26T05:50:13;3.60;99.90
18888;DHT22;9576;47.792;9.628;2022-12-26T05:53:15;3.70;99.90
18888;DHT22;9576;47.792;9.628;2022-12-26T05:56:18;3.60;99.90
18888;DHT22;9576;47.792;9.628;2022-12-26T05:59:20;3.70;99.90
18888;DHT22;9576;47.792;9.628;2022-12-26T06:02:23;3.70;99.90
18888;DHT22;9576;47.792;9.628;2022-12-26T06:05:25;3.60;99.90
18888;DHT22;9576;47.792;9.628;2022-12-26T06:08:27;3.50;99.90
18888;DHT22;9576;47.792;9.628;2022-12-26T06:11:29;3.60;99.90
18888;DHT22;9576;47.792;9.628;2022-12-26T06:14:31;3.70;99.90
18888;DHT22;9576;47.792;9.628;2022-12-26T06:17:34;3.60;99.90
18888;DHT22;9576;47.792;9.628;2022-12-26T06:20:37;3.60;99.90
18888;DHT22;9576;47.792;9.628;2022-12-26T06:23:40;3.60;99.90
18888;DHT22;9576;47.792;9.628;2022-12-26T06:26:42;3.70;99.90
18888;DHT22;9576;47.792;9.628;2022-12-26T06:29:45;3.70;99.90
18888;DHT22;9576;47.792;9.628;2022-12-26T06:32:48;3.70;99.90
18888;DHT22;9576;47.792;9.628;2022-12-26T06:35:50;3.60;99.90
18888;DHT22;9576;47.792;9.628;2022-12-26T06:38:53;3.60;99.90
18888;DHT22;9576;47.792;9.628;2022-12-26T06:41:56;3.50;99.90
18888;DHT22;9576;47.792;9.628;2022-12-26T06:44:58;3.60;99.90
18888;DHT22;9576;47.792;9.628;2022-12-26T06:48:01;3.60;99.90
18888;DHT22;9576;47.792;9.628;2022-12-26T06:51:05;3.60;99.90
18888;DHT22;9576;47.792;9.628;2022-12-26T06:54:08;3.70;99.90
18888;DHT22;9576;47.792;9.628;2022-12-26T06:57:21;3.70;99.90
18888;DHT22;9576;47.792;9.628;2022-12-26T07:00:23;3.70;99.90
18888;DHT22;9576;47.792;9.628;2022-12-26T07:03:27;3.70;99.90
18888;DHT22;9576;47.792;9.628;2022-12-26T07:06:30;3.70;99.90
18888;DHT22;9576;47.792;9.628;2022-12-26T07:09:32;3.60;99.90
18888;DHT22;9576;47.792;9.628;2022-12-26T07:12:34;3.60;99.90
18888;DHT22;9576;47.792;9.628;2022-12-26T07:15:36;3.70;99.90
18888;DHT22;9576;47.792;9.628;2022-12-26T07:18:40;3.80;99.90
18888;DHT22;9576;47.792;9.628;2022-12-26T07:21:42;3.80;99.90
18888;DHT22;9576;47.792;9.628;2022-12-26T07:24:44;3.70;99.90
18888;DHT22;9576;47.792;9.628;2022-12-26T07:27:46;3.70;99.90
18888;DHT22;9576;47.792;9.628;2022-12-26T07:30:49;3.80;99.90
18888;DHT22;9576;47.792;9.628;2022-12-26T07:33:53;3.80;99.90
18888;DHT22;9576;47.792;9.628;2022-12-26T07:36:55;4.00;99.90
18888;DHT22;9576;47.792;9.628;2022-12-26T07:39:57;4.10;99.90
18888;DHT22;9576;47.792;9.628;2022-12-26T07:42:59;4.00;99.90
18888;DHT22;9576;47.792;9.628;2022-12-26T07:46:01;4.20;99.90
18888;DHT22;9576;47.792;9.628;2022-12-26T07:49:06;4.20;99.90
18888;DHT22;9576;47.792;9.628;2022-12-26T07:52:08;4.20;99.90
18888;DHT22;9576;47.792;9.628;2022-12-26T07:55:10;4.20;99.90
18888;DHT22;9576;47.792;9.628;2022-12-26T07:58:12;4.20;99.90
18888;DHT22;9576;47.792;9.628;2022-12-26T08:01:14;4.40;99.90
18888;DHT22;9576;47.792;9.628;2022-12-26T08:04:18;4.50;99.90
18888;DHT22;9576;47.792;9.628;2022-12-26T08:07:19;4.60;99.90
18888;DHT22;9576;47.792;9.628;2022-12-26T08:10:21;4.70;99.90
18888;DHT22;9576;47.792;9.628;2022-12-26T08:13:23;4.80;99.90
18888;DHT22;9576;47.792;9.628;2022-12-26T08:16:25;4.80;99.90
18888;DHT22;9576;47.792;9.628;2022-12-26T08:19:29;4.70;99.90
18888;DHT22;9576;47.792;9.628;2022-12-26T08:22:31;4.70;99.90
18888;DHT22;9576;47.792;9.628;2022-12-26T08:25:32;4.80;99.90
18888;DHT22;9576;47.792;9.628;2022-12-26T08:28:35;4.90;99.90
18888;DHT22;9576;47.792;9.628;2022-12-26T08:31:37;4.90;99.90
18888;DHT22;9576;47.792;9.628;2022-12-26T08:34:40;5.00;99.90
18888;DHT22;9576;47.792;9.628;2022-12-26T08:37:42;5.20;99.90
18888;DHT22;9576;47.792;9.628;2022-12-26T08:40:44;5.30;99.90
18888;DHT22;9576;47.792;9.628;2022-12-26T08:43:54;5.50;99.90
18888;DHT22;9576;47.792;9.628;2022-12-26T08:46:56;5.60;99.90
18888;DHT22;9576;47.792;9.628;2022-12-26T08:50:00;5.60;99.90
18888;DHT22;9576;47.792;9.628;2022-12-26T08:53:01;5.60;99.90
18888;DHT22;9576;47.792;9.628;2022-12-26T08:56:05;5.60;99.90
18888;DHT22;9576;47.792;9.628;2022-12-26T08:59:07;5.70;99.90
18888;DHT22;9576;47.792;9.628;2022-12-26T09:02:10;5.80;99.90
18888;DHT22;9576;47.792;9.628;2022-12-26T09:05:14;5.80;99.90
18888;DHT22;9576;47.792;9.628;2022-12-26T09:08:15;6.00;99.90
18888;DHT22;9576;47.792;9.628;2022-12-26T09:11:19;6.20;99.90
18888;DHT22;9576;47.792;9.628;2022-12-26T09:14:21;6.30;99.90
18888;DHT22;9576;47.792;9.628;2022-12-26T09:17:23;6.30;99.90
18888;DHT22;9576;47.792;9.628;2022-12-26T09:20:28;6.20;99.90
18888;DHT22;9576;47.792;9.628;2022-12-26T09:23:31;6.30;99.90
18888;DHT22;9576;47.792;9.628;2022-12-26T09:26:33;6.40;99.90
18888;DHT22;9576;47.792;9.628;2022-12-26T09:29:36;6.60;99.90
18888;DHT22;9576;47.792;9.628;2022-12-26T09:32:38;6.70;99.90
18888;DHT22;9576;47.792;9.628;2022-12-26T09:35:41;6.80;99.90
18888;DHT22;9576;47.792;9.628;2022-12-26T09:38:44;7.10;99.90
18888;DHT22;9576;47.792;9.628;2022-12-26T09:41:58;7.40;99.90
18888;DHT22;9576;47.792;9.628;2022-12-26T09:45:08;7.60;99.90
18888;DHT22;9576;47.792;9.628;2022-12-26T09:48:15;7.70;99.90
18888;DHT22;9576;47.792;9.628;2022-12-26T09:51:20;7.90;99.90
18888;DHT22;9576;47.792;9.628;2022-12-26T09:54:28;7.90;99.90
18888;DHT22;9576;47.792;9.628;2022-12-26T09:57:35;8.10;99.90
18888;DHT22;9576;47.792;9.628;2022-12-26T10:00:47;8.10;99.90
18888;DHT22;9576;47.792;9.628;2022-12-26T10:03:52;8.20;99.90
18888;DHT22;9576;47.792;9.628;2022-12-26T10:07:04;8.30;99.90
18888;DHT22;9576;47.792;9.628;2022-12-26T10:10:09;8.30;99.90
18888;DHT22;9576;47.792;9.628;2022-12-26T10:13:14;8.30;99.90
18888;DHT22;9576;47.792;9.628;2022-12-26T10:16:22;8.40;99.90
18888;DHT22;9576;47.792;9.628;2022-12-26T10:19:37;8.50;99.90
18888;DHT22;9576;47.792;9.628;2022-12-26T10:23:02;8.60;99.90
18888;DHT22;9576;47.792;9.628;2022-12-26T10:26:10;8.60;99.90
18888;DHT22;9576;47.792;9.628;2022-12-26T10:29:18;8.70;99.90
18888;DHT22;9576;47.792;9.628;2022-12-26T10:32:24;8.70;99.90
18888;DHT22;9576;47.792;9.628;2022-12-26T10:35:30;8.80;99.90
18888;DHT22;9576;47.792;9.628;2022-12-26T10:38:38;8.80;99.90
18888;DHT22;9576;47.792;9.628;2022-12-26T10:41:41;8.90;99.90
18888;DHT22;9576;47.792;9.628;2022-12-26T10:44:45;8.90;99.90
18888;DHT22;9576;47.792;9.628;2022-12-26T10:47:49;8.80;99.90
18888;DHT22;9576;47.792;9.628;2022-12-26T10:50:52;8.80;99.90
18888;DHT22;9576;47.792;9.628;2022-12-26T10:54:00;8.90;99.90
18888;DHT22;9576;47.792;9.628;2022-12-26T10:57:07;8.80;99.90
18888;DHT22;9576;47.792;9.628;2022-12-26T11:00:15;8.80;99.90
18888;DHT22;9576;47.792;9.628;2022-12-26T11:03:27;8.80;99.90
18888;DHT22;9576;47.792;9.628;2022-12-26T11:06:43;8.70;99.90
18888;DHT22;9576;47.792;9.628;2022-12-26T11:10:16;8.70;99.90
18888;DHT22;9576;47.792;9.628;2022-12-26T11:13:38;8.70;99.90
18888;DHT22;9576;47.792;9.628;2022-12-26T11:16:40;8.70;99.90
18888;DHT22;9576;47.792;9.628;2022-12-26T11:19:43;8.70;99.90
18888;DHT22;9576;47.792;9.628;2022-12-26T11:22:45;8.80;99.90
18888;DHT22;9576;47.792;9.628;2022-12-26T11:25:50;8.90;99.90
18888;DHT22;9576;47.792;9.628;2022-12-26T11:29:05;8.90;99.90
18888;DHT22;9576;47.792;9.628;2022-12-26T11:32:17;9.00;99.90
18888;DHT22;9576;47.792;9.628;2022-12-26T11:35:22;9.00;99.90
18888;DHT22;9576;47.792;9.628;2022-12-26T11:38:26;9.00;99.90
18888;DHT22;9576;47.792;9.628;2022-12-26T11:41:41;8.90;99.90
18888;DHT22;9576;47.792;9.628;2022-12-26T11:44:44;8.90;99.90
18888;DHT22;9576;47.792;9.628;2022-12-26T11:47:49;8.90;99.90
18888;DHT22;9576;47.792;9.628;2022-12-26T11:50:51;8.90;99.90
18888;DHT22;9576;47.792;9.628;2022-12-26T11:54:12;8.90;99.90
18888;DHT22;9576;47.792;9.628;2022-12-26T11:57:26;8.90;99.90
18888;DHT22;9576;47.792;9.628;2022-12-26T12:00:28;8.90;99.90
18888;DHT22;9576;47.792;9.628;2022-12-26T12:03:32;8.90;99.90
18888;DHT22;9576;47.792;9.628;2022-12-26T12:06:52;8.90;99.90
18888;DHT22;9576;47.792;9.628;2022-12-26T12:10:02;8.90;99.90
18888;DHT22;9576;47.792;9.628;2022-12-26T12:13:18;8.90;99.90
18888;DHT22;9576;47.792;9.628;2022-12-26T12:16:40;8.80;99.90
18888;DHT22;9576;47.792;9.628;2022-12-26T12:19:57;8.80;99.90
18888;DHT22;9576;47.792;9.628;2022-12-26T12:23:22;8.70;99.90
18888;DHT22;9576;47.792;9.628;2022-12-26T12:26:32;8.70;99.90
18888;DHT22;9576;47.792;9.628;2022-12-26T12:29:52;8.60;99.90
18888;DHT22;9576;47.792;9.628;2022-12-26T12:33:13;8.60;99.90
18888;DHT22;9576;47.792;9.628;2022-12-26T12:36:22;8.60;99.90
18888;DHT22;9576;47.792;9.628;2022-12-26T12:39:36;8.60;99.90
18888;DHT22;9576;47.792;9.628;2022-12-26T12:42:47;8.60;99.90
18888;DHT22;9576;47.792;9.628;2022-12-26T12:46:01;8.60;99.90
18888;DHT22;9576;47.792;9.628;2022-12-26T12:49:34;8.60;99.90
18888;DHT22;9576;47.792;9.628;2022-12-26T12:52:43;8.60;99.90
18888;DHT22;9576;47.792;9.628;2022-12-26T12:55:58;8.60;99.90
18888;DHT22;9576;47.792;9.628;2022-12-26T12:59:05;8.70;99.90
18888;DHT22;9576;47.792;9.628;2022-12-26T13:02:17;8.70;99.90
18888;DHT22;9576;47.792;9.628;2022-12-26T13:05:33;8.70;99.90
18888;DHT22;9576;47.792;9.628;2022-12-26T13:08:42;8.60;99.90
18888;DHT22;9576;47.792;9.628;2022-12-26T13:11:49;8.60;99.90
18888;DHT22;9576;47.792;9.628;2022-12-26T13:14:55;8.50;99.90
18888;DHT22;9576;47.792;9.628;2022-12-26T13:18:04;8.50;99.90
18888;DHT22;9576;47.792;9.628;2022-12-26T13:21:10;8.40;99.90
18888;DHT22;9576;47.792;9.628;2022-12-26T13:24:15;8.50;99.90
18888;DHT22;9576;47.792;9.628;2022-12-26T13:27:26;8.50;99.90
18888;DHT22;9576;47.792;9.628;2022-12-26T13:30:30;8.40;99.90
18888;DHT22;9576;47.792;9.628;2022-12-26T13:33:34;8.40;99.90
18888;DHT22;9576;47.792;9.628;2022-12-26T13:36:39;8.50;99.90
18888;DHT22;9576;47.792;9.628;2022-12-26T13:39:41;8.50;99.90
18888;DHT22;9576;47.792;9.628;2022-12-26T13:42:44;8.50;99.90
18888;DHT22;9576;47.792;9.628;2022-12-26T13:46:37;8.50;99.90
18888;DHT22;9576;47.792;9.628;2022-12-26T13:49:55;8.50;99.90
18888;DHT22;9576;47.792;9.628;2022-12-26T13:52:58;8.50;99.90
18888;DHT22;9576;47.792;9.628;2022-12-26T13:56:01;8.50;99.90
18888;DHT22;9576;47.792;9.628;2022-12-26T13:59:10;8.50;99.90
18888;DHT22;9576;47.792;9.628;2022-12-26T14:02:25;8.50;99.90
18888;DHT22;9576;47.792;9.628;2022-12-26T14:05:36;8.50;99.90
18888;DHT22;9576;47.792;9.628;2022-12-26T14:08:46;8.50;99.90
18888;DHT22;9576;47.792;9.628;2022-12-26T14:11:59;8.50;99.90
18888;DHT22;9576;47.792;9.628;2022-12-26T14:15:13;8.60;99.90
18888;DHT22;9576;47.792;9.628;2022-12-26T14:18:30;8.60;99.90
18888;DHT22;9576;47.792;9.628;2022-12-26T14:21:45;8.60;99.90
18888;DHT22;9576;47.792;9.628;2022-12-26T14:25:03;8.50;99.90
18888;DHT22;9576;47.792;9.628;2022-12-26T14:28:16;8.60;99.90
18888;DHT22;9576;47.792;9.628;2022-12-26T14:31:25;8.50;99.90
18888;DHT22;9576;47.792;9.628;2022-12-26T14:34:39;8.50;99.90
18888;DHT22;9576;47.792;9.628;2022-12-26T14:37:54;8.50;99.90
18888;DHT22;9576;47.792;9.628;2022-12-26T14:41:01;8.40;99.90
18888;DHT22;9576;47.792;9.628;2022-12-26T14:44:16;8.40;99.90
18888;DHT22;9576;47.792;9.628;2022-12-26T14:47:40;8.40;99.90
18888;DHT22;9576;47.792;9.628;2022-12-26T14:50:44;8.40;99.90
18888;DHT22;9576;47.792;9.628;2022-12-26T14:54:16;8.40;99.90
18888;DHT22;9576;47.792;9.628;2022-12-26T14:57:42;8.30;99.90
18888;DHT22;9576;47.792;9.628;2022-12-26T15:00:46;8.30;99.90
18888;DHT22;9576;47.792;9.628;2022-12-26T15:03:51;8.30;99.90
18888;DHT22;9576;47.792;9.628;2022-12-26T15:10:47;8.20;99.90
18888;DHT22;9576;47.792;9.628;2022-12-26T15:14:30;8.20;99.90
18888;DHT22;9576;47.792;9.628;2022-12-26T15:17:42;8.20;99.90
18888;DHT22;9576;47.792;9.628;2022-12-26T15:21:04;8.10;99.90
18888;DHT22;9576;47.792;9.628;2022-12-26T15:28:34;8.10;99.90
18888;DHT22;9576;47.792;9.628;2022-12-26T15:31:51;8.00;99.90
18888;DHT22;9576;47.792;9.628;2022-12-26T15:35:02;8.00;99.90
18888;DHT22;9576;47.792;9.628;2022-12-26T15:38:16;8.00;99.90
18888;DHT22;9576;47.792;9.628;2022-12-26T15:41:30;8.00;99.90
18888;DHT22;9576;47.792;9.628;2022-12-26T15:44:44;8.00;99.90
18888;DHT22;9576;47.792;9.628;2022-12-26T15:47:55;7.90;99.90
18888;DHT22;9576;47.792;9.628;2022-12-26T15:51:03;7.90;99.90
18888;DHT22;9576;47.792;9.628;2022-12-26T15:54:20;7.90;99.90
18888;DHT22;9576;47.792;9.628;2022-12-26T15:57:28;7.90;99.90
18888;DHT22;9576;47.792;9.628;2022-12-26T16:00:34;7.90;99.90
18888;DHT22;9576;47.792;9.628;2022-12-26T16:03:41;7.90;99.90
18888;DHT22;9576;47.792;9.628;2022-12-26T16:07:05;7.90;99.90
18888;DHT22;9576;47.792;9.628;2022-12-26T16:10:27;7.90;99.90
18888;DHT22;9576;47.792;9.628;2022-12-26T16:13:29;7.90;99.90
18888;DHT22;9576;47.792;9.628;2022-12-26T16:16:35;7.90;99.90
18888;DHT22;9576;47.792;9.628;2022-12-26T16:19:37;7.90;99.90
18888;DHT22;9576;47.792;9.628;2022-12-26T16:22:41;7.90;99.90
18888;DHT22;9576;47.792;9.628;2022-12-26T16:25:46;7.90;99.90
18888;DHT22;9576;47.792;9.628;2022-12-26T16:28:49;7.90;99.90
18888;DHT22;9576;47.792;9.628;2022-12-26T16:32:01;7.90;99.90
18888;DHT22;9576;47.792;9.628;2022-12-26T16:35:04;7.90;99.90
18888;DHT22;9576;47.792;9.628;2022-12-26T16:38:11;7.90;99.90
18888;DHT22;9576;47.792;9.628;2022-12-26T16:41:19;7.90;99.90
18888;DHT22;9576;47.792;9.628;2022-12-26T16:44:27;7.90;99.90
18888;DHT22;9576;47.792;9.628;2022-12-26T16:47:31;7.90;99.90
18888;DHT22;9576;47.792;9.628;2022-12-26T16:50:43;8.00;99.90
18888;DHT22;9576;47.792;9.628;2022-12-26T16:53:45;7.90;99.90
18888;DHT22;9576;47.792;9.628;2022-12-26T16:56:49;8.00;99.90
18888;DHT22;9576;47.792;9.628;2022-12-26T16:59:53;8.00;99.90
18888;DHT22;9576;47.792;9.628;2022-12-26T17:02:58;8.00;99.90
18888;DHT22;9576;47.792;9.628;2022-12-26T17:06:08;8.00;99.90
18888;DHT22;9576;47.792;9.628;2022-12-26T17:09:12;8.00;99.90
18888;DHT22;9576;47.792;9.628;2022-12-26T17:12:20;7.90;99.90
18888;DHT22;9576;47.792;9.628;2022-12-26T17:15:26;8.00;99.90
18888;DHT22;9576;47.792;9.628;2022-12-26T17:18:43;8.00;99.90
18888;DHT22;9576;47.792;9.628;2022-12-26T17:22:18;8.00;99.90
18888;DHT22;9576;47.792;9.628;2022-12-26T17:25:23;8.00;99.90
18888;DHT22;9576;47.792;9.628;2022-12-26T17:28:27;8.00;99.90
18888;DHT22;9576;47.792;9.628;2022-12-26T17:31:32;8.00;99.90
18888;DHT22;9576;47.792;9.628;2022-12-26T17:34:37;8.00;99.90
18888;DHT22;9576;47.792;9.628;2022-12-26T17:37:40;8.00;99.90
18888;DHT22;9576;47.792;9.628;2022-12-26T17:40:44;7.90;99.90
18888;DHT22;9576;47.792;9.628;2022-12-26T17:43:47;7.90;99.90
18888;DHT22;9576;47.792;9.628;2022-12-26T17:46:49;7.90;99.90
18888;DHT22;9576;47.792;9.628;2022-12-26T17:49:53;7.90;99.90
18888;DHT22;9576;47.792;9.628;2022-12-26T17:53:02;7.90;99.90
18888;DHT22;9576;47.792;9.628;2022-12-26T17:56:06;7.90;99.90
18888;DHT22;9576;47.792;9.628;2022-12-26T17:59:09;8.00;99.90
18888;DHT22;9576;47.792;9.628;2022-12-26T18:02:14;8.00;99.90
18888;DHT22;9576;47.792;9.628;2022-12-26T18:05:18;7.90;99.90
18888;DHT22;9576;47.792;9.628;2022-12-26T18:08:26;8.00;99.90
18888;DHT22;9576;47.792;9.628;2022-12-26T18:11:28;8.00;99.90
18888;DHT22;9576;47.792;9.628;2022-12-26T18:14:30;8.10;99.90
18888;DHT22;9576;47.792;9.628;2022-12-26T18:17:32;8.00;99.90
18888;DHT22;9576;47.792;9.628;2022-12-26T18:20:35;8.10;99.90
18888;DHT22;9576;47.792;9.628;2022-12-26T18:23:37;8.00;99.90
18888;DHT22;9576;47.792;9.628;2022-12-26T18:26:39;8.00;99.90
18888;DHT22;9576;47.792;9.628;2022-12-26T18:29:41;8.10;99.90
18888;DHT22;9576;47.792;9.628;2022-12-26T18:32:43;8.10;99.90
18888;DHT22;9576;47.792;9.628;2022-12-26T18:35:47;8.10;99.90
18888;DHT22;9576;47.792;9.628;2022-12-26T18:38:49;8.10;99.90
18888;DHT22;9576;47.792;9.628;2022-12-26T18:41:51;8.10;99.90
18888;DHT22;9576;47.792;9.628;2022-12-26T18:44:53;8.20;99.90
18888;DHT22;9576;47.792;9.628;2022-12-26T18:47:55;8.20;99.90
18888;DHT22;9576;47.792;9.628;2022-12-26T18:50:59;8.20;99.90
18888;DHT22;9576;47.792;9.628;2022-12-26T18:54:02;8.30;99.90
18888;DHT22;9576;47.792;9.628;2022-12-26T18:57:06;8.30;99.90
18888;DHT22;9576;47.792;9.628;2022-12-26T19:00:12;8.30;99.90
18888;DHT22;9576;47.792;9.628;2022-12-26T19:03:14;8.30;99.90
18888;DHT22;9576;47.792;9.628;2022-12-26T19:06:21;8.30;99.90
18888;DHT22;9576;47.792;9.628;2022-12-26T19:09:23;8.20;99.90
18888;DHT22;9576;47.792;9.628;2022-12-26T19:12:25;8.20;99.90
18888;DHT22;9576;47.792;9.628;2022-12-26T19:15:27;8.20;99.90
18888;DHT22;9576;47.792;9.628;2022-12-26T19:18:29;8.20;99.90
18888;DHT22;9576;47.792;9.628;2022-12-26T19:21:32;8.30;99.90
18888;DHT22;9576;47.792;9.628;2022-12-26T19:24:34;8.30;99.90
18888;DHT22;9576;47.792;9.628;2022-12-26T19:27:36;8.30;99.90
18888;DHT22;9576;47.792;9.628;2022-12-26T19:30:38;8.30;99.90
18888;DHT22;9576;47.792;9.628;2022-12-26T19:33:40;8.30;99.90
18888;DHT22;9576;47.792;9.628;2022-12-26T19:36:43;8.30;99.90
18888;DHT22;9576;47.792;9.628;2022-12-26T19:39:45;8.20;99.90
18888;DHT22;9576;47.792;9.628;2022-12-26T19:42:47;8.20;99.90
18888;DHT22;9576;47.792;9.628;2022-12-26T19:45:57;8.20;99.90
18888;DHT22;9576;47.792;9.628;2022-12-26T19:49:00;8.20;99.90
18888;DHT22;9576;47.792;9.628;2022-12-26T19:52:03;8.20;99.90
18888;DHT22;9576;47.792;9.628;2022-12-26T19:55:06;8.30;99.90
18888;DHT22;9576;47.792;9.628;2022-12-26T19:58:09;8.30;99.90
18888;DHT22;9576;47.792;9.628;2022-12-26T20:01:14;8.30;99.90
18888;DHT22;9576;47.792;9.628;2022-12-26T20:04:16;8.30;99.90
18888;DHT22;9576;47.792;9.628;2022-12-26T20:07:20;8.40;99.90
18888;DHT22;9576;47.792;9.628;2022-12-26T20:10:22;8.30;99.90
18888;DHT22;9576;47.792;9.628;2022-12-26T20:13:23;8.30;99.90
18888;DHT22;9576;47.792;9.628;2022-12-26T20:16:26;8.40;99.90
18888;DHT22;9576;47.792;9.628;2022-12-26T20:19:28;8.30;99.90
18888;DHT22;9576;47.792;9.628;2022-12-26T20:22:31;8.30;99.90
18888;DHT22;9576;47.792;9.628;2022-12-26T20:25:33;8.20;99.90
18888;DHT22;9576;47.792;9.628;2022-12-26T20:28:38;8.30;99.90
18888;DHT22;9576;47.792;9.628;2022-12-26T20:31:40;8.30;99.90
18888;DHT22;9576;47.792;9.628;2022-12-26T20:34:42;8.40;99.90
18888;DHT22;9576;47.792;9.628;2022-12-26T20:37:45;8.40;99.90
18888;DHT22;9576;47.792;9.628;2022-12-26T20:40:47;8.40;99.90
18888;DHT22;9576;47.792;9.628;2022-12-26T20:43:49;8.50;99.90